createdAt,value
2023-04-11T00:00:11.165Z,8.91327
2023-04-11T00:05:12.421Z,9.03005
2023-04-11T00:10:13.968Z,9.312934
2023-04-11T00:15:15.244Z,8.674514
2023-04-11T00:20:16.520Z,8.959882
2023-04-11T00:25:17.930Z,8.38353
2023-04-11T00:30:19.169Z,8.76041
2023-04-11T00:35:20.782Z,7.695976
2023-04-11T00:40:22.133Z,8.472682
2023-04-11T00:45:23.385Z,7.986474
2023-04-11T00:50:24.904Z,9.397786
2023-04-11T00:55:26.259Z,8.216844
2023-04-11T01:00:27.725Z,8.306306
2023-04-11T01:05:29.018Z,8.936936
2023-04-11T01:10:30.395Z,8.570206
2023-04-11T01:15:31.814Z,8.536662
2023-04-11T01:20:33.207Z,8.834106
2023-04-11T01:25:34.686Z,8.157584
2023-04-11T01:30:35.966Z,8.036666
2023-04-11T01:35:37.418Z,8.16905
2023-04-11T01:40:39.133Z,8.04797
2023-04-11T01:45:40.668Z,8.144626
2023-04-11T01:50:42.078Z,8.032366
2023-04-11T01:55:43.823Z,8.620522
2023-04-11T02:00:45.147Z,8.541196
2023-04-11T02:05:46.382Z,7.910728
2023-04-11T02:10:47.660Z,7.821862
2023-04-11T02:15:49.304Z,7.716834
2023-04-11T02:20:50.647Z,7.636516
2023-04-11T02:25:51.924Z,7.632988
2023-04-11T02:30:53.521Z,7.30466
2023-04-11T02:35:54.930Z,7.484104
2023-04-11T02:40:56.228Z,7.393202
2023-04-11T02:46:09.530Z,7.39099
2023-04-11T02:51:13.617Z,7.059568
2023-04-11T02:56:14.991Z,7.278024
2023-04-11T03:01:17.405Z,7.372616
2023-04-11T03:06:18.688Z,6.956466
2023-04-11T03:11:20.112Z,7.036026
2023-04-11T03:16:21.465Z,6.691684
2023-04-11T03:21:22.978Z,7.227708
2023-04-11T03:26:24.470Z,6.819658
2023-04-11T03:31:25.773Z,7.243598
2023-04-11T03:36:27.283Z,6.957348
2023-04-11T03:41:28.741Z,7.3264
2023-04-11T03:46:30.030Z,6.687112
2023-04-11T03:51:31.444Z,6.806104
2023-04-11T03:56:32.878Z,6.581202
2023-04-11T04:01:34.247Z,6.34482
2023-04-11T04:06:35.626Z,4.805838
2023-04-11T04:11:37.088Z,4.715818
2023-04-11T04:16:38.523Z,5.587374
2023-04-11T04:21:47.797Z,6.274776
2023-04-11T04:26:49.578Z,5.99941
2023-04-11T04:31:51.325Z,6.52721
2023-04-11T04:36:53.050Z,5.951754
2023-04-11T04:41:54.629Z,6.66224
2023-04-11T04:46:56.300Z,7.395252
2023-04-11T04:51:58.193Z,7.575902
2023-04-11T04:57:00.152Z,7.446002
2023-04-11T05:02:01.548Z,7.647238
2023-04-11T05:07:03.542Z,6.905554
2023-04-11T05:12:07.021Z,7.624006
2023-04-11T05:17:08.485Z,7.300846
2023-04-11T05:22:09.967Z,7.364554
2023-04-11T05:27:11.713Z,7.321418
2023-04-11T05:32:13.066Z,8.045772
2023-04-11T05:37:14.670Z,8.351874
2023-04-11T05:42:16.251Z,7.845094
2023-04-11T05:47:17.509Z,8.41439
2023-04-11T05:52:18.760Z,8.368484
2023-04-11T05:57:20.378Z,8.62682
2023-04-11T06:02:21.724Z,9.447654
2023-04-11T06:07:23.078Z,10.00228
2023-04-11T06:12:24.641Z,10.610898
2023-04-11T06:17:25.931Z,11.050742
2023-04-11T06:22:27.145Z,11.430282
2023-04-11T06:27:28.801Z,11.87547
2023-04-11T06:32:30.131Z,12.519806
2023-04-11T06:37:31.440Z,11.676866
2023-04-11T06:42:33.055Z,12.179536
2023-04-11T06:47:34.496Z,12.525546
2023-04-11T06:52:36.077Z,13.607418
2023-04-11T06:57:38.030Z,13.890044
2023-04-11T07:02:39.844Z,14.0679
2023-04-11T07:07:41.826Z,14.87811
2023-04-11T07:12:43.325Z,14.7841
2023-04-11T07:17:45.275Z,14.98535
2023-04-11T07:22:47.105Z,16.289968
2023-04-11T07:27:49.025Z,15.957106
2023-04-11T07:32:51.311Z,14.734232
2023-04-11T07:37:53.076Z,15.82099
2023-04-11T07:42:54.870Z,17.127914
2023-04-11T07:47:56.512Z,17.060732
2023-04-11T07:52:58.627Z,17.795686
2023-04-11T07:58:00.267Z,17.342232
2023-04-11T08:03:02.345Z,17.457424
2023-04-11T08:08:04.122Z,18.209856
2023-04-11T08:13:05.744Z,17.44304
2023-04-11T08:18:07.352Z,18.380412
2023-04-11T08:23:09.414Z,17.323886
2023-04-11T08:28:11.164Z,18.960796
2023-04-11T08:33:12.864Z,19.278392
2023-04-11T08:38:14.551Z,18.51068
2023-04-11T08:43:16.535Z,18.75291
2023-04-11T08:48:17.908Z,20.021394
2023-04-11T08:53:19.155Z,19.435256
2023-04-11T08:58:20.877Z,18.825738
2023-04-11T09:03:22.338Z,19.168234
2023-04-11T09:08:23.951Z,19.780778
2023-04-11T09:13:25.482Z,19.739364
2023-04-11T09:18:27.070Z,19.875168
2023-04-11T09:23:28.367Z,19.672384
2023-04-11T09:28:29.603Z,19.69244
2023-04-11T09:33:30.956Z,20.637276
2023-04-11T09:38:32.329Z,19.800196
2023-04-11T09:43:33.682Z,19.89175
2023-04-11T09:48:46.134Z,21.064216
2023-04-11T09:53:48.514Z,21.03287
2023-04-11T09:58:49.897Z,20.351908
2023-04-11T10:03:51.529Z,21.409548
2023-04-11T10:08:52.803Z,21.678986
2023-04-11T10:13:54.525Z,21.136148
2023-04-11T10:18:56.164Z,20.657142
2023-04-11T10:23:57.828Z,21.735544
2023-04-11T10:28:59.617Z,21.641086
2023-04-11T10:34:00.977Z,22.293376
2023-04-11T10:39:02.457Z,22.181712
2023-04-11T10:44:03.756Z,20.711556
2023-04-11T10:49:05.135Z,22.612736
2023-04-11T10:54:06.592Z,22.650894
2023-04-11T10:59:08.082Z,21.665796
2023-04-11T11:04:09.857Z,22.213234
2023-04-11T11:09:11.322Z,21.740144
2023-04-11T11:14:12.875Z,21.193724
2023-04-11T11:19:14.402Z,22.138954
2023-04-11T11:24:15.966Z,22.641178
2023-04-11T11:29:17.681Z,20.351392
2023-04-11T11:39:23.655Z,22.225026
2023-04-11T11:44:25.048Z,22.413494
2023-04-11T11:49:26.324Z,21.416862
2023-04-11T11:54:27.714Z,21.413524
2023-04-11T11:59:29.190Z,22.168916
2023-04-11T12:04:30.739Z,22.332714
2023-04-11T12:09:32.242Z,22.393574
2023-04-11T12:14:33.797Z,21.390768
2023-04-11T12:19:35.164Z,22.535946
2023-04-11T12:24:36.547Z,21.440256
2023-04-11T12:29:37.986Z,22.33726
2023-04-11T12:34:39.250Z,22.435938
2023-04-11T12:39:40.608Z,22.351888
2023-04-11T12:44:42.318Z,22.145264
2023-04-11T12:49:43.563Z,21.930118
2023-04-11T12:54:44.992Z,21.793364
2023-04-11T12:59:46.231Z,22.21702
2023-04-11T13:04:47.564Z,22.61602
2023-04-11T13:09:49.077Z,22.157056
2023-04-11T13:14:50.360Z,21.653448
2023-04-11T13:19:51.588Z,21.4535
2023-04-11T13:24:52.996Z,21.806974
2023-04-11T13:29:54.697Z,22.092994
2023-04-11T13:34:56.012Z,21.717388
2023-04-11T13:39:58.048Z,21.953512
2023-04-11T13:44:59.949Z,22.459142
2023-04-11T13:50:01.928Z,22.505292
2023-04-11T13:55:03.658Z,21.246496
2023-04-11T14:00:05.522Z,22.32403
2023-04-11T14:05:07.014Z,21.500912
2023-04-11T14:10:08.420Z,21.739696
2023-04-11T14:15:10.035Z,21.450664
2023-04-11T14:20:11.669Z,21.147248
2023-04-11T14:25:13.168Z,21.110746
2023-04-11T14:30:14.837Z,21.470082
2023-04-11T14:35:16.456Z,21.392966
2023-04-11T14:40:18.281Z,21.105264
2023-04-11T14:45:19.736Z,21.632252
2023-04-11T14:50:21.214Z,20.77076
2023-04-11T14:55:22.633Z,20.65531
2023-04-11T15:00:24.123Z,20.829028
2023-04-11T15:05:25.348Z,20.518746
2023-04-11T15:10:26.854Z,19.95953
2023-04-11T15:15:28.802Z,19.77246
2023-04-11T15:20:30.272Z,19.634946
2023-04-11T15:25:31.899Z,19.321394
2023-04-11T15:30:33.728Z,19.154298
2023-04-11T15:35:35.288Z,19.037084
2023-04-11T15:40:37.106Z,19.319548
2023-04-11T15:45:38.998Z,19.00928
2023-04-11T15:50:40.644Z,18.700504
2023-04-11T15:55:42.489Z,18.409016
2023-04-11T16:00:48.478Z,17.873466
2023-04-11T16:05:50.173Z,17.1168
2023-04-11T16:10:51.723Z,17.28239
2023-04-11T16:15:53.601Z,16.434116
2023-04-11T16:20:55.560Z,15.802982
2023-04-11T16:25:57.461Z,16.064182
2023-04-11T16:30:59.863Z,15.627514
2023-04-11T16:36:01.614Z,15.951542
2023-04-11T16:41:03.391Z,15.469238
2023-04-11T16:46:05.372Z,15.066386
2023-04-11T16:51:07.075Z,15.375854
2023-04-11T16:56:09.023Z,15.359082
2023-04-11T17:01:11.025Z,15.295088
2023-04-11T17:06:13.509Z,14.53659
2023-04-11T17:11:15.858Z,14.660874
2023-04-11T17:16:17.590Z,14.32192
2023-04-11T17:21:19.062Z,14.144946
2023-04-11T17:26:20.354Z,15.093662
2023-04-11T17:31:21.738Z,14.63052
2023-04-11T17:36:23.276Z,14.014842
2023-04-11T17:41:24.838Z,14.644198
2023-04-11T17:46:26.182Z,14.02289
2023-04-11T17:51:28.916Z,14.066312
2023-04-11T17:56:30.944Z,13.500788
2023-04-11T18:01:32.877Z,12.927488
2023-04-11T18:06:34.344Z,12.39772
2023-04-11T18:11:36.355Z,12.700918
2023-04-11T18:16:38.309Z,12.412728
2023-04-11T18:21:39.648Z,13.33087
2023-04-11T18:26:41.238Z,11.61967
2023-04-11T18:31:43.144Z,13.03325
2023-04-11T18:36:45.305Z,12.246962
2023-04-11T18:41:48.389Z,12.135298
2023-04-11T18:46:52.211Z,12.20548
2023-04-11T18:51:55.114Z,12.24045
2023-04-11T18:56:57.819Z,12.161176
2023-04-11T19:02:00.398Z,12.044396
2023-04-11T19:07:02.416Z,12.337268
2023-04-11T19:12:03.996Z,11.85886
2023-04-11T19:17:05.686Z,12.12481
2023-04-11T19:22:06.955Z,11.65453
2023-04-11T19:27:08.187Z,11.322036
2023-04-11T19:32:10.039Z,11.42283
2023-04-11T19:37:11.366Z,11.855508
2023-04-11T19:42:12.725Z,11.002962
2023-04-11T19:47:14.251Z,10.424942
2023-04-11T19:52:15.565Z,10.612948
2023-04-11T19:57:17.009Z,10.572458
2023-04-11T20:02:19.167Z,10.266628
2023-04-11T20:07:20.536Z,10.516578
2023-04-11T20:12:23.087Z,9.932098
2023-04-11T20:17:24.939Z,9.597148
2023-04-11T20:22:26.211Z,10.00023
2023-04-11T20:27:27.482Z,10.547748
2023-04-11T20:32:28.969Z,9.874616
2023-04-11T20:37:30.431Z,9.560076
2023-04-11T20:42:31.763Z,9.011514
2023-04-11T20:47:33.173Z,10.279424
2023-04-11T20:52:34.931Z,9.857086
2023-04-11T20:57:36.462Z,9.411788
2023-04-11T21:02:38.367Z,9.465198
2023-04-11T21:07:40.173Z,9.622902
2023-04-11T21:12:41.748Z,8.964306
2023-04-11T21:17:43.516Z,9.517874
2023-04-11T21:22:44.779Z,9.173928
2023-04-11T21:27:46.115Z,8.655382
2023-04-11T21:32:47.596Z,8.925022
2023-04-11T21:37:49.376Z,9.289988
2023-04-11T21:42:50.717Z,8.994594
2023-04-11T21:47:52.615Z,8.954156
2023-04-11T21:52:54.164Z,9.011962
2023-04-11T21:57:55.434Z,8.560504
2023-04-11T22:02:57.808Z,8.686714
2023-04-11T22:07:59.222Z,8.257916
2023-04-11T22:13:00.496Z,8.941036
2023-04-11T22:18:02.235Z,8.95018
2023-04-11T22:23:03.578Z,7.83543
2023-04-11T22:28:05.035Z,7.763336
2023-04-11T22:33:06.661Z,8.114338
2023-04-11T22:38:08.328Z,7.654332
2023-04-11T22:43:09.585Z,7.748924
2023-04-11T22:48:11.429Z,8.122834
2023-04-11T22:53:13.140Z,7.49474
2023-04-11T22:58:14.821Z,7.816136
2023-04-11T23:03:16.661Z,8.403506
2023-04-11T23:08:17.995Z,7.475446
2023-04-11T23:13:19.603Z,7.651524
2023-04-11T23:18:21.034Z,7.526196
2023-04-11T23:23:22.307Z,7.659028
2023-04-11T23:28:23.593Z,7.900578
2023-04-11T23:33:24.993Z,8.45427
2023-04-11T23:38:26.379Z,8.475004
2023-04-11T23:43:27.874Z,7.621794
2023-04-11T23:48:29.303Z,7.444834
2023-04-11T23:53:30.613Z,7.676806
2023-04-11T23:58:31.928Z,7.444114
